Time;durP1;ratioP1;P1;durP2;ratioP2;P2;SDS_P1;SDS_P2;PMS_P1;PMS_P2;Temp;Humidity;BMP_temperature;BMP_pressure;BME280_temperature;BME280_humidity;BME280_pressure;Samples;Min_cycle;Max_cycle;Signal;HPM_P1;HPM_P2
2022/04/09 00:00:41;;;;;;;25.73;3.20;;;6.70;99.90;;;;;;5052802;28;20052;-72
2022/04/09 00:03:06;;;;;;;14.45;2.08;;;6.70;99.90;;;;;;5052631;28;20072;-72
2022/04/09 00:05:32;;;;;;;11.95;2.08;;;6.80;99.90;;;;;;5052686;28;20052;-72
2022/04/09 00:07:59;;;;;;;17.50;2.13;;;6.60;99.90;;;;;;5052575;28;20033;-72
2022/04/09 00:10:24;;;;;;;13.93;2.33;;;6.50;99.90;;;;;;5052803;28;20472;-72
2022/04/09 00:12:50;;;;;;;20.30;3.13;;;6.40;99.90;;;;;;5052677;28;20027;-72
2022/04/09 00:15:19;;;;;;;16.33;2.88;;;6.30;99.90;;;;;;5033477;28;20056;-72
2022/04/09 00:17:46;;;;;;;19.00;2.83;;;6.30;99.90;;;;;;5044648;28;20078;-72
2022/04/09 00:20:15;;;;;;;20.55;2.47;;;6.20;99.90;;;;;;5052315;28;20032;-72
2022/04/09 00:22:41;;;;;;;25.50;3.38;;;6.30;99.90;;;;;;5052321;28;20557;-72
2022/04/09 00:25:11;;;;;;;23.13;3.45;;;6.30;99.90;;;;;;5052210;28;20056;-72
2022/04/09 00:27:37;;;;;;;23.40;2.78;;;6.20;99.90;;;;;;5052486;28;20027;-72
2022/04/09 00:30:04;;;;;;;14.43;2.72;;;6.30;99.90;;;;;;5052142;28;20469;-72
2022/04/09 00:32:30;;;;;;;14.70;2.22;;;6.20;99.90;;;;;;5034221;28;20029;-72
2022/04/09 00:34:56;;;;;;;23.35;2.75;;;6.30;99.90;;;;;;5052022;28;20108;-72
2022/04/09 00:37:21;;;;;;;19.33;2.30;;;6.20;99.90;;;;;;5056679;28;20021;-72
2022/04/09 00:39:47;;;;;;;17.15;2.88;;;6.20;99.90;;;;;;5072185;28;20021;-72
2022/04/09 00:42:14;;;;;;;19.80;2.67;;;6.20;99.90;;;;;;5071975;28;20023;-72
2022/04/09 00:44:40;;;;;;;13.57;2.42;;;6.20;99.90;;;;;;5071842;28;20433;-72
2022/04/09 00:47:06;;;;;;;18.27;3.05;;;6.20;99.90;;;;;;5054048;28;20064;-72
2022/04/09 00:49:32;;;;;;;17.90;3.10;;;6.30;99.90;;;;;;5054005;28;20107;-72
2022/04/09 00:52:00;;;;;;;21.15;2.97;;;6.30;99.90;;;;;;5071788;28;20119;-72
2022/04/09 00:54:29;;;;;;;16.52;2.50;;;6.30;99.90;;;;;;5071738;28;20032;-72
2022/04/09 00:57:05;;;;;;;18.45;3.00;;;6.30;99.90;;;;;;5071834;28;20027;-72
2022/04/09 00:59:33;;;;;;;16.88;2.75;;;6.40;99.90;;;;;;5071420;28;20029;-72
2022/04/09 01:01:59;;;;;;;20.05;2.60;;;6.40;99.90;;;;;;5053624;28;20039;-72
2022/04/09 01:04:25;;;;;;;18.45;2.88;;;6.40;99.90;;;;;;5071711;28;20119;-72
2022/04/09 01:06:51;;;;;;;16.45;2.67;;;6.40;99.90;;;;;;5071652;28;20438;-72
2022/04/09 01:09:17;;;;;;;18.75;2.10;;;6.40;99.90;;;;;;5071707;28;20017;-72
2022/04/09 01:11:43;;;;;;;17.77;2.60;;;6.40;99.90;;;;;;5071521;28;20029;-72
2022/04/09 01:14:10;;;;;;;19.70;2.97;;;6.40;99.90;;;;;;5071656;28;20032;-72
2022/04/09 01:16:36;;;;;;;15.63;3.15;;;6.40;99.90;;;;;;5071523;28;20419;-72
2022/04/09 01:19:02;;;;;;;16.38;2.75;;;6.40;99.90;;;;;;5071666;28;20024;-72
2022/04/09 01:21:28;;;;;;;19.95;3.47;;;6.50;99.90;;;;;;5071758;28;20112;-72
2022/04/09 01:23:54;;;;;;;18.35;2.80;;;6.50;99.90;;;;;;5071719;28;20518;-72
2022/04/09 01:26:21;;;;;;;22.20;3.22;;;6.50;99.90;;;;;;5071529;28;20048;-72
2022/04/09 01:28:47;;;;;;;22.27;3.28;;;6.50;99.90;;;;;;5071673;28;20065;-72
2022/04/09 01:31:13;;;;;;;22.67;3.13;;;6.60;99.90;;;;;;5071099;28;20025;-72
2022/04/09 01:33:39;;;;;;;13.98;2.78;;;6.60;99.90;;;;;;5071588;28;20025;-72
2022/04/09 01:36:05;;;;;;;17.65;2.70;;;6.60;99.90;;;;;;5071349;28;20032;-72
2022/04/09 01:38:31;;;;;;;14.30;2.80;;;6.60;99.90;;;;;;5039781;28;20029;-72
2022/04/09 01:40:56;;;;;;;11.75;1.80;;;6.60;99.90;;;;;;5051450;28;20021;-72
2022/04/09 01:43:22;;;;;;;6.75;1.70;;;6.60;99.90;;;;;;5051378;28;20449;-72
2022/04/09 01:45:48;;;;;;;8.07;1.60;;;6.50;99.90;;;;;;5051396;28;20018;-72
2022/04/09 01:48:14;;;;;;;7.47;1.10;;;6.40;99.90;;;;;;5051222;28;20028;-72
2022/04/09 01:50:40;;;;;;;5.50;1.10;;;6.30;99.90;;;;;;5051084;28;20032;-72
2022/04/09 01:53:05;;;;;;;5.82;1.20;;;6.20;99.90;;;;;;5051264;28;20033;-72
2022/04/09 01:55:32;;;;;;;8.57;1.65;;;6.20;99.90;;;;;;5033211;28;20473;-72
2022/04/09 01:57:58;;;;;;;10.25;1.20;;;6.10;99.90;;;;;;5033196;28;20536;-72
2022/04/09 02:00:24;;;;;;;10.85;1.65;;;6.10;99.90;;;;;;5050961;28;20099;-73
2022/04/09 02:02:50;;;;;;;9.05;1.45;;;6.10;99.90;;;;;;5050950;28;20523;-72
2022/04/09 02:05:17;;;;;;;8.68;1.50;;;6.10;99.90;;;;;;5051140;28;20044;-72
2022/04/09 02:07:43;;;;;;;13.73;2.13;;;6.00;99.90;;;;;;5051016;28;20021;-72
2022/04/09 02:10:10;;;;;;;12.50;1.92;;;6.00;99.90;;;;;;5051171;28;20480;-72
2022/04/09 02:12:36;;;;;;;17.17;2.17;;;6.00;99.90;;;;;;5055019;28;20029;-72
2022/04/09 02:15:10;;;;;;;13.40;2.17;;;5.90;99.90;;;;;;5054431;28;20040;-72
2022/04/09 02:17:40;;;;;;;12.70;1.77;;;5.90;99.90;;;;;;5054032;28;20093;-72
2022/04/09 02:20:07;;;;;;;10.55;2.40;;;5.90;99.90;;;;;;5036364;28;20028;-72
2022/04/09 02:22:38;;;;;;;12.68;2.33;;;5.80;99.90;;;;;;5036641;28;20024;-72
2022/04/09 02:25:05;;;;;;;15.57;2.08;;;5.80;99.90;;;;;;5036815;28;20534;-72
2022/04/09 02:27:31;;;;;;;17.75;2.35;;;5.80;99.90;;;;;;5054351;28;20116;-72
2022/04/09 02:29:56;;;;;;;21.25;2.90;;;5.80;99.90;;;;;;5054376;28;20096;-72
2022/04/09 02:32:22;;;;;;;12.45;2.15;;;5.80;99.90;;;;;;5054385;28;20036;-72
2022/04/09 02:34:49;;;;;;;15.77;2.78;;;5.80;99.90;;;;;;5054419;28;20505;-72
2022/04/09 02:37:15;;;;;;;10.13;2.30;;;5.80;99.90;;;;;;5058516;28;20273;-72
2022/04/09 02:39:41;;;;;;;23.50;2.47;;;5.80;99.90;;;;;;5058946;28;20155;-72
2022/04/09 02:42:06;;;;;;;20.58;2.50;;;5.80;99.90;;;;;;5054163;28;20396;-72
2022/04/09 02:44:32;;;;;;;11.45;2.60;;;5.90;99.90;;;;;;5036266;28;20103;-72
2022/04/09 02:46:58;;;;;;;9.65;2.00;;;5.90;99.90;;;;;;5054173;28;20531;-71
2022/04/09 02:49:23;;;;;;;19.05;2.30;;;5.90;99.90;;;;;;5054171;28;20039;-72
2022/04/09 02:51:49;;;;;;;20.42;2.78;;;6.00;99.90;;;;;;5054082;28;20106;-72
2022/04/09 02:54:17;;;;;;;9.98;1.98;;;6.00;99.90;;;;;;5054160;28;20041;-72
2022/04/09 02:56:49;;;;;;;15.63;2.40;;;6.00;99.90;;;;;;5053979;28;20027;-72
2022/04/09 02:59:14;;;;;;;10.80;2.10;;;6.00;99.90;;;;;;5054128;28;20021;-72
2022/04/09 03:01:41;;;;;;;14.88;2.47;;;6.00;99.90;;;;;;5053837;28;20104;-72
2022/04/09 03:04:07;;;;;;;17.52;2.20;;;6.10;99.90;;;;;;5053911;28;20520;-72
2022/04/09 03:06:33;;;;;;;11.57;2.00;;;6.10;99.90;;;;;;5053889;28;20384;-72
2022/04/09 03:08:59;;;;;;;17.73;2.25;;;6.10;99.90;;;;;;5053663;28;20103;-71
2022/04/09 03:11:24;;;;;;;14.20;2.25;;;6.00;99.90;;;;;;5053768;28;20029;-72
2022/04/09 03:13:50;;;;;;;18.15;2.28;;;6.10;99.90;;;;;;5053624;28;20074;-72
2022/04/09 03:16:15;;;;;;;16.77;2.45;;;6.00;99.90;;;;;;5053533;28;20025;-72
2022/04/09 03:18:41;;;;;;;18.95;2.15;;;6.00;99.90;;;;;;5053785;28;20033;-72
2022/04/09 03:21:06;;;;;;;18.85;2.33;;;6.00;99.90;;;;;;5053324;28;20435;-72
2022/04/09 03:23:32;;;;;;;16.98;2.55;;;6.00;99.90;;;;;;5053238;28;20491;-71
2022/04/09 03:25:57;;;;;;;16.50;2.17;;;6.10;99.90;;;;;;5053502;28;20511;-72
2022/04/09 03:28:23;;;;;;;23.33;2.63;;;6.10;99.90;;;;;;5053427;28;20039;-72
2022/04/09 03:30:49;;;;;;;18.83;3.00;;;6.00;99.90;;;;;;5053323;28;20029;-72
2022/04/09 03:33:15;;;;;;;19.00;2.28;;;6.10;99.90;;;;;;5053316;28;20139;-72
2022/04/09 03:35:40;;;;;;;15.52;2.65;;;6.10;99.90;;;;;;5053294;28;20028;-72
2022/04/09 03:38:10;;;;;;;21.23;2.70;;;6.10;99.90;;;;;;5063820;28;20463;-72
2022/04/09 03:40:37;;;;;;;17.25;2.75;;;6.10;99.90;;;;;;5073146;28;20376;-72
2022/04/09 03:43:03;;;;;;;20.92;3.03;;;6.20;99.90;;;;;;5054991;28;20048;-72
2022/04/09 03:45:28;;;;;;;15.02;2.47;;;6.20;99.90;;;;;;5055313;28;20586;-72
2022/04/09 03:47:54;;;;;;;14.38;2.15;;;6.20;99.90;;;;;;5072920;28;20025;-72
2022/04/09 03:50:20;;;;;;;14.63;2.42;;;6.30;99.90;;;;;;5060914;28;20025;-72
2022/04/09 03:52:46;;;;;;;15.57;2.60;;;6.30;99.90;;;;;;5072503;28;20025;-73
2022/04/09 03:55:13;;;;;;;25.63;2.92;;;6.30;99.90;;;;;;5067341;28;20066;-72
2022/04/09 03:57:38;;;;;;;13.15;2.25;;;6.40;99.90;;;;;;5072877;28;20480;-72
2022/04/09 04:00:05;;;;;;;21.17;2.60;;;6.40;99.90;;;;;;5060169;28;20028;-72
2022/04/09 04:02:30;;;;;;;17.08;2.67;;;6.40;99.90;;;;;;5052458;28;20037;-72
2022/04/09 04:05:01;;;;;;;19.38;2.95;;;6.40;99.90;;;;;;5053023;28;20516;-72
2022/04/09 04:07:27;;;;;;;19.55;2.38;;;6.30;99.90;;;;;;5054219;28;20512;-72
2022/04/09 04:09:52;;;;;;;20.55;2.88;;;6.30;99.90;;;;;;5056065;28;20092;-72
2022/04/09 04:12:18;;;;;;;19.60;2.85;;;6.30;99.90;;;;;;5058061;28;20029;-72
2022/04/09 04:14:44;;;;;;;16.55;2.20;;;6.40;99.90;;;;;;5058580;28;20025;-72
2022/04/09 04:17:10;;;;;;;19.27;2.85;;;6.40;99.90;;;;;;5044348;28;20051;-72
2022/04/09 04:19:36;;;;;;;19.63;2.72;;;6.40;99.90;;;;;;5064894;28;20016;-72
2022/04/09 04:22:02;;;;;;;24.60;2.53;;;6.40;99.90;;;;;;5059795;28;20025;-72
2022/04/09 04:24:28;;;;;;;20.35;3.08;;;6.50;99.90;;;;;;5056921;28;20087;-72
2022/04/09 04:26:54;;;;;;;19.05;2.67;;;6.50;99.90;;;;;;5056873;28;20039;-72
2022/04/09 04:29:19;;;;;;;16.00;2.75;;;6.50;99.90;;;;;;5060460;28;20017;-72
2022/04/09 04:31:45;;;;;;;11.20;2.35;;;6.50;99.90;;;;;;5058410;28;20079;-72
2022/04/09 04:34:10;;;;;;;16.25;3.15;;;6.50;99.90;;;;;;5055938;28;20025;-72
2022/04/09 04:36:36;;;;;;;16.20;2.55;;;6.60;99.90;;;;;;5060910;28;20112;-72
2022/04/09 04:39:01;;;;;;;17.88;2.65;;;6.50;99.90;;;;;;5061207;28;20048;-72
2022/04/09 04:41:27;;;;;;;18.65;2.47;;;6.50;99.90;;;;;;5053940;28;20049;-72
2022/04/09 04:43:52;;;;;;;12.52;2.05;;;6.50;99.90;;;;;;5045982;28;20098;-72
2022/04/09 04:46:19;;;;;;;15.32;2.67;;;6.50;99.90;;;;;;5058727;28;20044;-72
2022/04/09 04:48:46;;;;;;;22.92;2.97;;;6.50;99.90;;;;;;5058235;28;20047;-72
2022/04/09 04:51:11;;;;;;;20.23;2.97;;;6.50;99.90;;;;;;5059400;28;20070;-72
2022/04/09 04:53:37;;;;;;;13.13;2.50;;;6.50;99.90;;;;;;5058811;28;20017;-72
2022/04/09 04:56:03;;;;;;;22.83;3.30;;;6.60;99.90;;;;;;5052496;28;20043;-72
2022/04/09 04:58:28;;;;;;;19.83;3.15;;;6.60;99.90;;;;;;5018684;28;20374;-72
2022/04/09 05:00:54;;;;;;;20.45;3.08;;;6.60;99.90;;;;;;5043122;28;20024;-71
2022/04/09 05:03:19;;;;;;;17.08;3.25;;;6.60;99.90;;;;;;5052737;28;20807;-72
2022/04/09 05:05:45;;;;;;;22.60;3.65;;;6.70;99.90;;;;;;5056848;28;20028;-72
2022/04/09 05:08:10;;;;;;;24.38;3.65;;;6.70;99.90;;;;;;5052625;28;20024;-73
2022/04/09 05:10:36;;;;;;;26.40;4.28;;;6.60;99.90;;;;;;5049954;28;20070;-72
2022/04/09 05:13:02;;;;;;;16.75;3.40;;;6.60;99.90;;;;;;5057458;28;20032;-73
2022/04/09 05:15:27;;;;;;;21.00;3.42;;;6.60;99.90;;;;;;5060109;28;20092;-73
2022/04/09 05:17:53;;;;;;;21.08;3.60;;;6.60;99.90;;;;;;5051039;28;20171;-73
2022/04/09 05:20:18;;;;;;;16.83;3.72;;;6.70;99.90;;;;;;5051594;28;20075;-73
2022/04/09 05:22:46;;;;;;;22.90;3.67;;;6.70;99.90;;;;;;5033549;28;20036;-73
2022/04/09 05:25:13;;;;;;;22.35;3.40;;;6.70;99.90;;;;;;5051605;28;20031;-74
2022/04/09 05:27:40;;;;;;;23.98;3.85;;;6.70;99.90;;;;;;5051474;28;20096;-74
2022/04/09 05:30:06;;;;;;;24.08;3.60;;;6.80;99.90;;;;;;5051502;28;20108;-73
2022/04/09 05:32:32;;;;;;;14.15;2.58;;;6.80;99.90;;;;;;5056058;28;20045;-73
2022/04/09 05:34:57;;;;;;;12.07;2.20;;;6.80;99.90;;;;;;5058006;28;20017;-74
2022/04/09 05:37:23;;;;;;;11.85;2.15;;;6.80;99.90;;;;;;5051757;28;20029;-73
2022/04/09 05:39:48;;;;;;;12.18;1.83;;;6.70;99.90;;;;;;5051079;28;20029;-73
2022/04/09 05:42:14;;;;;;;9.05;1.65;;;6.60;99.90;;;;;;5051319;28;20029;-73
2022/04/09 05:44:40;;;;;;;9.80;1.90;;;6.50;99.90;;;;;;5052461;28;20477;-73
2022/04/09 05:47:06;;;;;;;8.43;1.83;;;6.40;99.90;;;;;;5055399;28;20469;-73
2022/04/09 05:49:32;;;;;;;13.40;2.30;;;6.40;99.90;;;;;;5055023;28;20025;-73
2022/04/09 05:51:58;;;;;;;18.25;2.95;;;6.30;99.90;;;;;;5055322;28;20029;-73
2022/04/09 05:54:24;;;;;;;11.15;2.65;;;6.40;99.90;;;;;;5055365;28;20111;-73
2022/04/09 05:56:50;;;;;;;20.45;3.25;;;6.40;99.90;;;;;;5060846;28;20739;-74
2022/04/09 05:59:16;;;;;;;19.63;3.25;;;6.50;99.90;;;;;;5063861;28;20475;-73
2022/04/09 06:01:42;;;;;;;20.55;2.78;;;6.50;99.90;;;;;;5075009;28;20048;-73
2022/04/09 06:04:08;;;;;;;22.92;2.58;;;6.60;99.90;;;;;;5074911;28;20068;-74
2022/04/09 06:06:33;;;;;;;15.35;2.80;;;6.60;99.90;;;;;;5074960;28;20420;-74
2022/04/09 06:08:59;;;;;;;16.55;2.70;;;6.70;99.90;;;;;;5074930;28;20025;-73
2022/04/09 06:11:25;;;;;;;14.52;3.17;;;6.70;99.90;;;;;;5074605;28;20119;-73
2022/04/09 06:13:50;;;;;;;15.15;2.75;;;6.70;99.90;;;;;;5075127;28;20027;-73
2022/04/09 06:16:16;;;;;;;15.43;2.83;;;6.70;99.90;;;;;;5074858;28;20017;-73
2022/04/09 06:18:42;;;;;;;18.52;2.80;;;6.70;99.90;;;;;;5074930;28;20657;-73
2022/04/09 06:21:08;;;;;;;17.25;2.70;;;6.70;99.90;;;;;;5074706;28;20020;-73
2022/04/09 06:23:34;;;;;;;13.70;2.72;;;6.80;99.90;;;;;;5056623;28;20017;-73
2022/04/09 06:26:00;;;;;;;15.93;3.00;;;6.80;99.90;;;;;;5056682;28;20111;-73
2022/04/09 06:28:26;;;;;;;15.70;2.80;;;6.80;99.90;;;;;;5074605;28;20357;-73
2022/04/09 06:30:52;;;;;;;17.58;3.30;;;6.80;99.90;;;;;;5071320;28;20070;-73
2022/04/09 06:33:18;;;;;;;16.35;3.50;;;6.90;99.90;;;;;;5065516;28;20032;-73
2022/04/09 06:35:44;;;;;;;14.93;3.33;;;6.90;99.90;;;;;;5062708;28;20024;-73
2022/04/09 06:38:09;;;;;;;18.85;4.43;;;6.90;99.90;;;;;;5053545;28;20460;-73
2022/04/09 06:40:35;;;;;;;22.10;3.85;;;6.90;99.90;;;;;;5074351;28;20028;-73
2022/04/09 06:43:01;;;;;;;11.43;2.85;;;6.90;99.90;;;;;;5050746;28;20042;-73
2022/04/09 06:45:26;;;;;;;14.82;3.25;;;6.90;99.90;;;;;;5073555;28;20035;-73
2022/04/09 06:47:52;;;;;;;15.40;3.63;;;6.90;99.90;;;;;;5074029;28;20017;-73
2022/04/09 06:50:18;;;;;;;18.48;3.10;;;6.80;99.90;;;;;;5074028;28;20371;-73
2022/04/09 06:52:45;;;;;;;13.32;2.83;;;6.80;99.90;;;;;;5073772;28;20491;-73
2022/04/09 06:55:11;;;;;;;21.23;3.50;;;6.80;99.90;;;;;;5074392;28;20025;-73
2022/04/09 06:57:41;;;;;;;25.40;3.28;;;6.80;99.90;;;;;;5073142;28;20035;-73
2022/04/09 07:00:12;;;;;;;17.25;3.83;;;6.80;99.90;;;;;;5073983;28;20013;-73
2022/04/09 07:02:39;;;;;;;15.73;2.67;;;6.90;99.90;;;;;;5073617;28;20031;-73
2022/04/09 07:05:05;;;;;;;12.48;3.03;;;6.90;99.90;;;;;;5073764;28;20099;-75
2022/04/09 07:07:31;;;;;;;17.13;3.15;;;7.00;99.90;;;;;;5070834;28;20546;-73
2022/04/09 07:10:10;;;;;;;11.68;2.50;;;7.00;99.90;;;;;;5055582;28;20025;-73
2022/04/09 07:12:36;;;;;;;14.48;2.42;;;7.00;99.90;;;;;;5059224;28;20033;-74
2022/04/09 07:15:03;;;;;;;19.15;2.67;;;7.00;99.90;;;;;;5066546;28;20028;-74
2022/04/09 07:17:30;;;;;;;17.52;2.67;;;7.00;99.90;;;;;;5073663;28;20052;-75
2022/04/09 07:20:07;;;;;;;8.77;1.95;;;6.90;99.90;;;;;;5073667;28;20051;-75
2022/04/09 07:22:34;;;;;;;6.40;1.42;;;6.70;99.90;;;;;;5053087;28;20051;-70
2022/04/09 07:25:00;;;;;;;10.50;1.90;;;6.70;99.90;;;;;;5072637;28;20380;-70
2022/04/09 07:27:36;;;;;;;14.43;2.33;;;6.60;99.90;;;;;;5072492;28;20021;-69
2022/04/09 07:30:10;;;;;;;14.50;2.70;;;6.70;99.90;;;;;;5072394;28;20029;-69
2022/04/09 07:32:36;;;;;;;11.77;1.65;;;6.80;99.90;;;;;;5071744;28;20081;-76
2022/04/09 07:35:02;;;;;;;14.40;2.67;;;6.90;99.90;;;;;;5069452;28;20020;-76
2022/04/09 07:37:27;;;;;;;8.40;1.92;;;6.90;99.90;;;;;;5072059;28;20541;-76
2022/04/09 07:39:53;;;;;;;7.72;1.38;;;7.00;99.90;;;;;;5072765;28;20045;-77
2022/04/09 07:42:22;;;;;;;3.40;0.90;;;6.90;99.90;;;;;;5070359;28;20491;-77
2022/04/09 07:44:48;;;;;;;4.50;1.08;;;6.70;99.90;;;;;;5055444;28;20021;-77
2022/04/09 07:47:14;;;;;;;2.83;0.80;;;6.50;99.90;;;;;;5073379;28;20036;-77
2022/04/09 07:49:40;;;;;;;3.53;0.98;;;6.40;99.90;;;;;;5073609;28;20028;-77
2022/04/09 07:52:06;;;;;;;4.43;0.80;;;6.30;99.90;;;;;;5074005;28;20024;-77
2022/04/09 07:54:32;;;;;;;2.67;0.70;;;6.30;99.90;;;;;;5055787;28;20016;-78
2022/04/09 07:56:57;;;;;;;5.65;0.77;;;6.20;99.90;;;;;;5073578;28;20027;-78
2022/04/09 07:59:23;;;;;;;3.75;0.70;;;6.20;99.90;;;;;;5074677;28;20051;-78
2022/04/09 08:01:49;;;;;;;5.65;1.20;;;6.20;99.90;;;;;;5072125;28;20105;-75
2022/04/09 08:04:14;;;;;;;3.95;0.93;;;6.30;99.90;;;;;;5072502;28;20090;-78
2022/04/09 08:06:40;;;;;;;4.15;1.30;;;6.40;99.90;;;;;;5072550;28;20029;-77
2022/04/09 08:09:05;;;;;;;12.65;2.00;;;6.50;99.90;;;;;;5052281;28;20030;-77
2022/04/09 08:11:31;;;;;;;8.20;1.88;;;6.70;99.90;;;;;;5073407;28;20460;-77
2022/04/09 08:13:57;;;;;;;14.18;2.50;;;6.80;99.90;;;;;;5073293;28;20033;-77
2022/04/09 08:16:23;;;;;;;9.27;2.97;;;7.00;99.90;;;;;;5051626;28;20036;-77
2022/04/09 08:18:49;;;;;;;13.65;2.70;;;7.20;99.90;;;;;;5053600;28;20048;-77
2022/04/09 08:21:16;;;;;;;19.67;3.67;;;7.40;99.90;;;;;;5067912;28;20040;-77
2022/04/09 08:23:42;;;;;;;19.85;3.42;;;7.60;99.90;;;;;;5065374;28;20341;-77
2022/04/09 08:26:07;;;;;;;17.52;3.55;;;7.60;99.90;;;;;;5069756;28;20021;-77
2022/04/09 08:28:36;;;;;;;12.23;3.33;;;7.70;99.90;;;;;;5063138;28;20020;-77
2022/04/09 08:31:02;;;;;;;17.75;3.13;;;7.80;99.90;;;;;;5054864;28;20063;-78
2022/04/09 08:33:28;;;;;;;18.05;4.10;;;7.80;99.90;;;;;;5057148;28;20044;-77
2022/04/09 08:35:53;;;;;;;16.42;3.10;;;7.80;99.90;;;;;;5066951;28;20388;-78
2022/04/09 08:38:19;;;;;;;15.60;3.38;;;7.90;99.90;;;;;;5065268;28;20025;-77
2022/04/09 08:40:46;;;;;;;16.83;3.70;;;7.90;99.90;;;;;;5069145;28;20292;-76
2022/04/09 08:43:11;;;;;;;19.25;3.35;;;8.10;99.90;;;;;;5068976;28;20328;-77
2022/04/09 08:45:40;;;;;;;16.50;2.90;;;8.20;99.90;;;;;;5068454;28;20404;-75
2022/04/09 08:48:07;;;;;;;13.95;3.03;;;8.40;99.90;;;;;;5048856;28;20082;-74
2022/04/09 08:50:35;;;;;;;21.40;3.22;;;8.50;99.90;;;;;;5069320;28;20033;-74
2022/04/09 08:53:06;;;;;;;16.55;2.78;;;8.60;99.90;;;;;;5051516;28;20029;-74
2022/04/09 08:55:33;;;;;;;14.93;2.60;;;8.70;99.90;;;;;;5059323;28;20025;-76
2022/04/09 08:57:58;;;;;;;20.15;3.60;;;8.90;99.90;;;;;;5054483;28;20031;-75
2022/04/09 09:00:24;;;;;;;12.43;2.80;;;9.00;99.90;;;;;;5051992;28;20537;-74
2022/04/09 09:02:51;;;;;;;15.07;3.08;;;9.10;99.90;;;;;;5051976;28;20096;-76
2022/04/09 09:05:37;;;;;;;14.40;3.08;;;9.20;99.90;;;;;;5051077;28;20384;-77
2022/04/09 09:08:03;;;;;;;15.73;2.78;;;9.30;99.90;;;;;;5058009;28;20540;-77
2022/04/09 09:10:30;;;;;;;11.40;2.58;;;9.30;99.90;;;;;;5052779;28;20111;-74
2022/04/09 09:13:07;;;;;;;12.43;2.75;;;9.30;99.90;;;;;;5071709;28;20029;-78
2022/04/09 09:15:53;;;;;;;14.98;3.35;;;9.30;99.90;;;;;;5071308;28;20028;-77
2022/04/09 09:18:24;;;;;;;8.57;2.47;;;9.30;99.90;;;;;;5069864;28;20051;-77
2022/04/09 09:20:53;;;;;;;13.50;2.92;;;9.20;99.90;;;;;;5070134;28;20021;-77
2022/04/09 09:23:27;;;;;;;12.88;2.85;;;9.30;99.90;;;;;;5070503;28;20118;-77
2022/04/09 09:25:54;;;;;;;13.70;2.58;;;9.20;99.90;;;;;;5072066;28;20420;-77
2022/04/09 09:28:29;;;;;;;13.77;2.83;;;9.10;99.90;;;;;;5073260;28;20029;-78
2022/04/09 09:30:56;;;;;;;9.23;2.58;;;9.00;99.90;;;;;;5058402;28;20074;-78
2022/04/09 09:33:22;;;;;;;12.35;2.63;;;8.90;99.90;;;;;;5060688;28;20044;-78
2022/04/09 09:35:59;;;;;;;6.32;2.13;;;8.90;99.90;;;;;;5063954;28;20392;-77
2022/04/09 09:38:31;;;;;;;15.32;2.67;;;8.80;99.90;;;;;;5059442;28;20555;-77
2022/04/09 09:40:57;;;;;;;13.27;2.25;;;8.80;99.90;;;;;;5068127;28;20016;-78
2022/04/09 09:43:26;;;;;;;13.20;2.50;;;8.80;99.90;;;;;;5070147;28;20033;-78
2022/04/09 09:45:53;;;;;;;15.32;2.50;;;9.00;99.90;;;;;;5043739;28;20036;-77
2022/04/09 09:48:27;;;;;;;12.05;2.40;;;9.10;99.90;;;;;;5043173;28;20489;-78
2022/04/09 09:50:55;;;;;;;10.05;2.20;;;9.10;99.90;;;;;;5051384;28;20100;-77
2022/04/09 09:53:32;;;;;;;9.30;2.58;;;9.10;99.90;;;;;;5051408;28;20032;-77
2022/04/09 09:55:59;;;;;;;12.88;2.20;;;9.20;99.90;;;;;;5033123;28;20033;-78
2022/04/09 09:58:27;;;;;;;12.05;2.70;;;9.20;99.90;;;;;;5053663;28;20032;-77
2022/04/09 10:00:57;;;;;;;14.93;2.53;;;9.30;99.90;;;;;;5071507;28;20017;-78
2022/04/09 10:03:25;;;;;;;11.70;2.33;;;9.20;99.90;;;;;;5070588;28;20036;-77
2022/04/09 10:05:51;;;;;;;11.77;2.30;;;9.10;99.90;;;;;;5052285;28;20037;-78
2022/04/09 10:08:18;;;;;;;13.68;2.60;;;9.10;99.90;;;;;;5071020;28;20040;-77
2022/04/09 10:10:53;;;;;;;13.27;2.38;;;9.20;99.90;;;;;;5070576;28;20499;-77
2022/04/09 10:13:21;;;;;;;12.02;2.30;;;9.30;99.90;;;;;;5070983;28;20086;-78
2022/04/09 10:15:50;;;;;;;9.20;2.00;;;9.40;99.90;;;;;;5071268;28;20094;-78
2022/04/09 10:18:23;;;;;;;8.50;1.90;;;9.50;99.90;;;;;;5052826;28;20057;-78
2022/04/09 10:20:56;;;;;;;17.23;2.13;;;9.60;99.90;;;;;;5053475;28;20043;-77
2022/04/09 10:23:22;;;;;;;8.88;2.08;;;9.70;99.90;;;;;;5069658;28;20070;-77
2022/04/09 10:25:53;;;;;;;14.50;2.38;;;9.80;99.90;;;;;;5065973;28;20106;-78
2022/04/09 10:28:39;;;;;;;7.55;2.20;;;9.70;99.90;;;;;;5070522;28;20130;-78
2022/04/09 10:31:23;;;;;;;6.90;2.00;;;9.70;99.90;;;;;;5068739;28;20016;-78
2022/04/09 10:33:56;;;;;;;8.98;1.98;;;9.60;99.90;;;;;;5068870;28;20071;-78
2022/04/09 10:36:40;;;;;;;8.65;1.50;;;9.60;99.90;;;;;;5075107;28;20081;-78
2022/04/09 10:39:25;;;;;;;7.88;1.90;;;9.60;99.90;;;;;;5075517;28;20035;-78
2022/04/09 10:41:53;;;;;;;9.60;1.93;;;9.70;99.90;;;;;;5073791;28;20045;-77
2022/04/09 10:44:45;;;;;;;12.55;1.98;;;9.90;99.90;;;;;;5061798;28;20021;-78
2022/04/09 10:47:13;;;;;;;10.25;2.10;;;10.10;99.90;;;;;;5066949;28;20352;-78
2022/04/09 10:49:39;;;;;;;12.48;2.35;;;10.10;99.90;;;;;;5075524;28;20484;-78
2022/04/09 10:52:19;;;;;;;12.13;2.17;;;9.90;99.90;;;;;;5038315;28;20036;-78
2022/04/09 10:55:07;;;;;;;10.45;2.40;;;9.80;99.90;;;;;;5072267;28;20077;-78
2022/04/09 10:57:45;;;;;;;12.15;2.20;;;9.90;99.90;;;;;;5069228;28;20024;-77
2022/04/09 11:00:23;;;;;;;17.75;3.13;;;9.90;99.90;;;;;;5070486;28;20025;-78
2022/04/09 11:03:22;;;;;;;14.75;2.53;;;9.90;99.90;;;;;;5072896;28;20080;-77
2022/04/09 11:05:48;;;;;;;15.52;2.50;;;10.10;99.90;;;;;;5072191;28;20032;-77
2022/04/09 11:08:18;;;;;;;10.80;2.38;;;10.30;99.90;;;;;;5069220;28;20016;-78
2022/04/09 11:10:44;;;;;;;11.35;2.35;;;10.40;99.90;;;;;;5068040;28;20124;-78
2022/04/09 11:13:13;;;;;;;11.65;2.60;;;10.40;99.90;;;;;;5073426;28;20131;-78
2022/04/09 11:15:45;;;;;;;9.43;2.60;;;10.50;99.90;;;;;;5074158;28;20043;-78
2022/04/09 11:18:10;;;;;;;12.38;1.92;;;10.60;99.90;;;;;;5069989;28;20125;-77
2022/04/09 11:20:38;;;;;;;7.82;1.70;;;10.60;99.90;;;;;;5061428;28;20021;-77
2022/04/09 11:23:12;;;;;;;20.77;2.03;;;10.50;99.90;;;;;;5072274;28;20044;-78
2022/04/09 11:25:42;;;;;;;12.25;1.83;;;10.40;99.90;;;;;;5055260;28;20485;-78
2022/04/09 11:28:13;;;;;;;13.32;2.13;;;10.10;99.90;;;;;;5072517;28;20035;-77
2022/04/09 11:30:58;;;;;;;15.05;2.00;;;9.90;99.90;;;;;;5053212;28;20439;-78
2022/04/09 11:33:24;;;;;;;8.85;2.10;;;9.80;99.90;;;;;;5073069;28;20029;-78
2022/04/09 11:35:50;;;;;;;8.25;1.75;;;9.60;99.90;;;;;;5073047;28;20035;-78
2022/04/09 11:38:16;;;;;;;11.82;1.95;;;9.60;99.90;;;;;;5073382;28;20381;-78
2022/04/09 11:40:47;;;;;;;9.55;2.47;;;9.60;99.90;;;;;;5072640;28;20091;-77
2022/04/09 11:43:18;;;;;;;12.60;2.20;;;9.60;99.90;;;;;;5072754;28;20380;-78
2022/04/09 11:45:44;;;;;;;12.15;2.40;;;9.60;99.90;;;;;;5072838;28;20039;-78
2022/04/09 11:48:17;;;;;;;10.20;1.83;;;9.70;99.90;;;;;;5072928;28;20099;-78
2022/04/09 11:50:44;;;;;;;9.82;2.17;;;9.90;99.90;;;;;;5073207;28;20032;-78
2022/04/09 11:53:15;;;;;;;8.63;2.10;;;9.90;99.90;;;;;;5073547;28;20028;-78
2022/04/09 11:55:41;;;;;;;10.23;2.30;;;9.90;99.90;;;;;;5073673;28;20035;-78
2022/04/09 11:58:08;;;;;;;13.80;2.65;;;10.00;99.90;;;;;;5073781;28;20029;-78
2022/04/09 12:00:38;;;;;;;8.90;2.00;;;10.00;99.90;;;;;;5072834;28;20024;-78
2022/04/09 12:03:05;;;;;;;9.85;2.33;;;10.10;99.90;;;;;;5073157;28;20032;-78
2022/04/09 12:05:36;;;;;;;7.72;2.00;;;10.10;99.90;;;;;;5072972;28;20437;-78
2022/04/09 12:08:02;;;;;;;8.88;1.95;;;10.20;99.90;;;;;;5054467;28;20497;-78
2022/04/09 12:10:29;;;;;;;11.05;2.05;;;10.20;99.90;;;;;;5054936;28;20112;-78
2022/04/09 12:13:03;;;;;;;11.25;2.20;;;10.10;99.90;;;;;;5072773;28;20032;-79
2022/04/09 12:15:32;;;;;;;7.45;1.77;;;10.10;99.90;;;;;;5072898;28;20033;-78
2022/04/09 12:17:59;;;;;;;10.32;1.80;;;9.90;99.90;;;;;;5071810;28;20075;-78
2022/04/09 12:20:34;;;;;;;8.77;1.98;;;9.90;99.90;;;;;;5072002;28;20020;-78
2022/04/09 12:23:00;;;;;;;7.53;1.40;;;9.70;99.90;;;;;;5071840;28;20464;-78
2022/04/09 12:25:33;;;;;;;10.20;2.08;;;9.70;99.90;;;;;;5072944;28;20502;-79
2022/04/09 12:27:59;;;;;;;10.30;2.47;;;9.60;99.90;;;;;;5074741;28;20016;-78
2022/04/09 12:30:45;;;;;;;6.80;1.88;;;9.60;99.90;;;;;;5073716;28;20044;-79
2022/04/09 12:33:12;;;;;;;10.82;2.35;;;9.70;99.90;;;;;;5060493;28;20028;-79
2022/04/09 12:35:39;;;;;;;9.02;2.00;;;9.80;99.90;;;;;;5074991;28;20429;-78
2022/04/09 12:38:05;;;;;;;10.77;2.10;;;9.80;99.90;;;;;;5073649;28;20415;-80
2022/04/09 12:40:32;;;;;;;10.18;2.20;;;9.90;99.90;;;;;;5075555;28;20085;-79
2022/04/09 12:43:01;;;;;;;7.13;2.05;;;10.20;99.90;;;;;;5056212;28;20035;-79
2022/04/09 12:45:28;;;;;;;15.20;2.75;;;10.40;99.90;;;;;;5074468;28;20060;-79
2022/04/09 12:48:00;;;;;;;6.45;2.17;;;10.60;99.90;;;;;;5073693;28;20033;-78
2022/04/09 12:50:30;;;;;;;11.68;2.20;;;10.70;99.90;;;;;;5075182;28;20411;-79